Salt Lake City, Utah
Traffic Map
Current Weather Conditions
Salt Lake City, Utah
Clear
Clear
60°
Feels Like: 60°
Wind Chill: 60° Ceiling: Unl
Heat Index: 60° Visibility: 10mi
Dew Point: 42° Wind: 5mph
Humidity: 51% Direction: 140° (SE)
Pressure: 30.05in Gusts: 0mph
Raw Report DataKSLC 011353Z 14004KT 10SM CLR 16/06 A3005 RMK AO2 SLP136 T01560056
Traffic Incident Summary
Active as of:
Severity:
Category:
InformationThere was an issue retrieving the traffic information for this location. Please try a different location or try again shortly.
Advertisements
Track Severe Weather on mobile